sensor_id;sensor_type;location;lat;lon;timestamp;temperature;humidity
12872;DHT22;6504;53.766;9.626;2023-09-18T00:00:49;19.30;99.90
12872;DHT22;6504;53.766;9.626;2023-09-18T00:03:17;19.30;99.90
12872;DHT22;6504;53.766;9.626;2023-09-18T00:05:47;19.30;99.90
12872;DHT22;6504;53.766;9.626;2023-09-18T00:08:16;19.30;99.90
12872;DHT22;6504;53.766;9.626;2023-09-18T00:10:46;19.30;99.90
12872;DHT22;6504;53.766;9.626;2023-09-18T00:13:15;19.30;99.90
12872;DHT22;6504;53.766;9.626;2023-09-18T00:15:43;19.30;99.90
12872;DHT22;6504;53.766;9.626;2023-09-18T00:18:15;19.30;99.90
12872;DHT22;6504;53.766;9.626;2023-09-18T00:20:44;19.30;99.90
12872;DHT22;6504;53.766;9.626;2023-09-18T00:23:15;19.20;99.90
12872;DHT22;6504;53.766;9.626;2023-09-18T00:25:43;19.20;99.90
12872;DHT22;6504;53.766;9.626;2023-09-18T00:28:11;19.20;99.90
12872;DHT22;6504;53.766;9.626;2023-09-18T00:30:49;19.20;99.90
12872;DHT22;6504;53.766;9.626;2023-09-18T00:33:19;19.20;99.90
12872;DHT22;6504;53.766;9.626;2023-09-18T00:35:47;19.20;99.90
12872;DHT22;6504;53.766;9.626;2023-09-18T00:38:16;19.20;99.90
12872;DHT22;6504;53.766;9.626;2023-09-18T00:40:44;19.20;99.90
12872;DHT22;6504;53.766;9.626;2023-09-18T00:43:12;19.20;99.90
12872;DHT22;6504;53.766;9.626;2023-09-18T00:45:42;19.10;99.90
12872;DHT22;6504;53.766;9.626;2023-09-18T00:48:12;19.20;99.90
12872;DHT22;6504;53.766;9.626;2023-09-18T00:50:44;19.10;99.90
12872;DHT22;6504;53.766;9.626;2023-09-18T00:53:14;19.10;99.90
12872;DHT22;6504;53.766;9.626;2023-09-18T00:55:44;19.10;99.90
12872;DHT22;6504;53.766;9.626;2023-09-18T00:58:13;19.10;99.90
12872;DHT22;6504;53.766;9.626;2023-09-18T01:00:42;19.10;99.90
12872;DHT22;6504;53.766;9.626;2023-09-18T01:03:11;19.10;99.90
12872;DHT22;6504;53.766;9.626;2023-09-18T01:05:39;19.10;99.90
12872;DHT22;6504;53.766;9.626;2023-09-18T01:08:08;19.10;99.90
12872;DHT22;6504;53.766;9.626;2023-09-18T01:10:47;19.10;99.90
12872;DHT22;6504;53.766;9.626;2023-09-18T01:13:20;19.00;99.90
12872;DHT22;6504;53.766;9.626;2023-09-18T01:15:54;19.00;99.90
12872;DHT22;6504;53.766;9.626;2023-09-18T01:18:22;19.00;99.90
12872;DHT22;6504;53.766;9.626;2023-09-18T01:20:50;19.00;99.90
12872;DHT22;6504;53.766;9.626;2023-09-18T01:23:19;19.00;99.90
12872;DHT22;6504;53.766;9.626;2023-09-18T01:25:47;19.00;99.90
12872;DHT22;6504;53.766;9.626;2023-09-18T01:28:16;19.00;99.90
12872;DHT22;6504;53.766;9.626;2023-09-18T01:30:44;19.00;99.90
12872;DHT22;6504;53.766;9.626;2023-09-18T01:33:12;19.00;99.90
12872;DHT22;6504;53.766;9.626;2023-09-18T01:35:41;18.90;99.90
12872;DHT22;6504;53.766;9.626;2023-09-18T01:38:10;18.90;99.90
12872;DHT22;6504;53.766;9.626;2023-09-18T01:40:40;18.90;99.90
12872;DHT22;6504;53.766;9.626;2023-09-18T01:43:09;18.90;99.90
12872;DHT22;6504;53.766;9.626;2023-09-18T01:45:37;18.90;99.90
12872;DHT22;6504;53.766;9.626;2023-09-18T01:48:06;18.90;99.90
12872;DHT22;6504;53.766;9.626;2023-09-18T01:50:36;18.90;99.90
12872;DHT22;6504;53.766;9.626;2023-09-18T01:53:04;18.90;99.90
12872;DHT22;6504;53.766;9.626;2023-09-18T01:55:32;18.90;99.90
12872;DHT22;6504;53.766;9.626;2023-09-18T01:58:02;18.80;99.90
12872;DHT22;6504;53.766;9.626;2023-09-18T02:00:30;18.80;99.90
12872;DHT22;6504;53.766;9.626;2023-09-18T02:02:59;18.80;99.90
12872;DHT22;6504;53.766;9.626;2023-09-18T02:05:47;18.80;99.90
12872;DHT22;6504;53.766;9.626;2023-09-18T02:08:15;18.80;99.90
12872;DHT22;6504;53.766;9.626;2023-09-18T02:10:43;18.80;99.90
12872;DHT22;6504;53.766;9.626;2023-09-18T02:13:13;18.70;99.90
12872;DHT22;6504;53.766;9.626;2023-09-18T02:15:41;18.70;99.90
12872;DHT22;6504;53.766;9.626;2023-09-18T02:18:09;18.70;99.90
12872;DHT22;6504;53.766;9.626;2023-09-18T02:20:40;18.70;99.90
12872;DHT22;6504;53.766;9.626;2023-09-18T02:23:08;18.70;99.90
12872;DHT22;6504;53.766;9.626;2023-09-18T02:25:37;18.70;99.90
12872;DHT22;6504;53.766;9.626;2023-09-18T02:28:05;18.60;99.90
12872;DHT22;6504;53.766;9.626;2023-09-18T02:30:34;18.60;99.90
12872;DHT22;6504;53.766;9.626;2023-09-18T02:33:03;18.60;99.90
12872;DHT22;6504;53.766;9.626;2023-09-18T02:35:31;18.60;99.90
12872;DHT22;6504;53.766;9.626;2023-09-18T02:37:59;18.60;99.90
12872;DHT22;6504;53.766;9.626;2023-09-18T02:40:29;18.50;99.90
12872;DHT22;6504;53.766;9.626;2023-09-18T02:42:57;18.50;99.90
12872;DHT22;6504;53.766;9.626;2023-09-18T02:45:25;18.50;99.90
12872;DHT22;6504;53.766;9.626;2023-09-18T02:47:54;18.50;99.90
12872;DHT22;6504;53.766;9.626;2023-09-18T02:50:22;18.50;99.90
12872;DHT22;6504;53.766;9.626;2023-09-18T02:52:51;18.50;99.90
12872;DHT22;6504;53.766;9.626;2023-09-18T02:55:19;18.50;99.90
12872;DHT22;6504;53.766;9.626;2023-09-18T02:57:47;18.50;99.90
12872;DHT22;6504;53.766;9.626;2023-09-18T03:00:15;18.50;99.90
12872;DHT22;6504;53.766;9.626;2023-09-18T03:02:56;18.50;99.90
12872;DHT22;6504;53.766;9.626;2023-09-18T03:05:24;18.50;99.90
12872;DHT22;6504;53.766;9.626;2023-09-18T03:07:53;18.50;99.90
12872;DHT22;6504;53.766;9.626;2023-09-18T03:10:21;18.50;99.90
12872;DHT22;6504;53.766;9.626;2023-09-18T03:12:49;18.50;99.90
12872;DHT22;6504;53.766;9.626;2023-09-18T03:15:17;18.40;99.90
12872;DHT22;6504;53.766;9.626;2023-09-18T03:17:45;18.40;99.90
12872;DHT22;6504;53.766;9.626;2023-09-18T03:20:15;18.40;99.90
12872;DHT22;6504;53.766;9.626;2023-09-18T03:22:43;18.40;99.90
12872;DHT22;6504;53.766;9.626;2023-09-18T03:25:11;18.40;99.90
12872;DHT22;6504;53.766;9.626;2023-09-18T03:27:39;18.40;99.90
12872;DHT22;6504;53.766;9.626;2023-09-18T03:30:08;18.40;99.90
12872;DHT22;6504;53.766;9.626;2023-09-18T03:32:39;18.40;99.90
12872;DHT22;6504;53.766;9.626;2023-09-18T03:35:07;18.40;99.90
12872;DHT22;6504;53.766;9.626;2023-09-18T03:37:38;18.40;99.90
12872;DHT22;6504;53.766;9.626;2023-09-18T03:40:07;18.40;99.90
12872;DHT22;6504;53.766;9.626;2023-09-18T03:42:35;18.30;99.90
12872;DHT22;6504;53.766;9.626;2023-09-18T03:45:06;18.30;99.90
12872;DHT22;6504;53.766;9.626;2023-09-18T03:47:34;18.30;99.90
12872;DHT22;6504;53.766;9.626;2023-09-18T03:50:03;18.30;99.90
12872;DHT22;6504;53.766;9.626;2023-09-18T03:52:31;18.30;99.90
12872;DHT22;6504;53.766;9.626;2023-09-18T03:55:00;18.30;99.90
12872;DHT22;6504;53.766;9.626;2023-09-18T03:57:29;18.30;99.90
12872;DHT22;6504;53.766;9.626;2023-09-18T03:59:57;18.30;99.90
12872;DHT22;6504;53.766;9.626;2023-09-18T04:02:26;18.30;99.90
12872;DHT22;6504;53.766;9.626;2023-09-18T04:04:54;18.30;99.90
12872;DHT22;6504;53.766;9.626;2023-09-18T04:07:22;18.30;99.90
12872;DHT22;6504;53.766;9.626;2023-09-18T04:09:50;18.30;99.90
12872;DHT22;6504;53.766;9.626;2023-09-18T04:12:19;18.20;99.90
12872;DHT22;6504;53.766;9.626;2023-09-18T04:14:47;18.20;99.90
12872;DHT22;6504;53.766;9.626;2023-09-18T04:17:15;18.20;99.90
12872;DHT22;6504;53.766;9.626;2023-09-18T04:19:44;18.20;99.90
12872;DHT22;6504;53.766;9.626;2023-09-18T04:22:12;18.20;99.90
12872;DHT22;6504;53.766;9.626;2023-09-18T04:24:40;18.20;99.90
12872;DHT22;6504;53.766;9.626;2023-09-18T04:27:08;18.20;99.90
12872;DHT22;6504;53.766;9.626;2023-09-18T04:29:38;18.20;99.90
12872;DHT22;6504;53.766;9.626;2023-09-18T04:32:06;18.10;99.90
12872;DHT22;6504;53.766;9.626;2023-09-18T04:34:34;18.10;99.90
12872;DHT22;6504;53.766;9.626;2023-09-18T04:37:02;18.10;99.90
12872;DHT22;6504;53.766;9.626;2023-09-18T04:39:31;18.10;99.90
12872;DHT22;6504;53.766;9.626;2023-09-18T04:42:01;18.10;99.90
12872;DHT22;6504;53.766;9.626;2023-09-18T04:44:31;18.10;99.90
12872;DHT22;6504;53.766;9.626;2023-09-18T04:47:01;18.10;99.90
12872;DHT22;6504;53.766;9.626;2023-09-18T04:49:30;18.10;99.90
12872;DHT22;6504;53.766;9.626;2023-09-18T04:51:58;18.10;99.90
12872;DHT22;6504;53.766;9.626;2023-09-18T04:54:26;18.10;99.90
12872;DHT22;6504;53.766;9.626;2023-09-18T04:56:54;18.10;99.90
12872;DHT22;6504;53.766;9.626;2023-09-18T04:59:22;18.10;99.90
12872;DHT22;6504;53.766;9.626;2023-09-18T05:01:50;18.00;99.90
12872;DHT22;6504;53.766;9.626;2023-09-18T05:04:20;18.00;99.90
12872;DHT22;6504;53.766;9.626;2023-09-18T05:06:48;18.00;99.90
12872;DHT22;6504;53.766;9.626;2023-09-18T05:09:16;18.00;99.90
12872;DHT22;6504;53.766;9.626;2023-09-18T05:11:44;18.00;99.90
12872;DHT22;6504;53.766;9.626;2023-09-18T05:14:12;18.00;99.90
12872;DHT22;6504;53.766;9.626;2023-09-18T05:16:43;18.00;99.90
12872;DHT22;6504;53.766;9.626;2023-09-18T05:19:11;18.00;99.90
12872;DHT22;6504;53.766;9.626;2023-09-18T05:21:40;18.00;99.90
12872;DHT22;6504;53.766;9.626;2023-09-18T05:24:09;18.00;99.90
12872;DHT22;6504;53.766;9.626;2023-09-18T05:26:37;18.00;99.90
12872;DHT22;6504;53.766;9.626;2023-09-18T05:29:05;18.00;99.90
12872;DHT22;6504;53.766;9.626;2023-09-18T05:31:33;18.00;99.90
12872;DHT22;6504;53.766;9.626;2023-09-18T05:34:01;18.00;99.90
12872;DHT22;6504;53.766;9.626;2023-09-18T05:36:29;18.00;99.90
12872;DHT22;6504;53.766;9.626;2023-09-18T05:38:58;18.00;99.90
12872;DHT22;6504;53.766;9.626;2023-09-18T05:41:26;18.00;99.90
12872;DHT22;6504;53.766;9.626;2023-09-18T05:43:56;18.00;99.90
12872;DHT22;6504;53.766;9.626;2023-09-18T05:46:24;18.00;99.90
12872;DHT22;6504;53.766;9.626;2023-09-18T05:48:52;18.00;99.90
12872;DHT22;6504;53.766;9.626;2023-09-18T05:51:23;18.00;99.90
12872;DHT22;6504;53.766;9.626;2023-09-18T05:53:51;18.00;99.90
12872;DHT22;6504;53.766;9.626;2023-09-18T05:56:20;18.00;99.90
12872;DHT22;6504;53.766;9.626;2023-09-18T05:58:51;18.00;99.90
12872;DHT22;6504;53.766;9.626;2023-09-18T06:01:20;18.00;99.90
12872;DHT22;6504;53.766;9.626;2023-09-18T06:03:48;18.00;99.90
12872;DHT22;6504;53.766;9.626;2023-09-18T06:06:16;18.10;99.90
12872;DHT22;6504;53.766;9.626;2023-09-18T06:08:44;18.10;99.90
12872;DHT22;6504;53.766;9.626;2023-09-18T06:11:12;18.10;99.90
12872;DHT22;6504;53.766;9.626;2023-09-18T06:13:41;18.10;99.90
12872;DHT22;6504;53.766;9.626;2023-09-18T06:16:09;18.10;99.90
12872;DHT22;6504;53.766;9.626;2023-09-18T06:18:37;18.10;99.90
12872;DHT22;6504;53.766;9.626;2023-09-18T06:21:05;18.10;99.90
12872;DHT22;6504;53.766;9.626;2023-09-18T06:23:33;18.10;99.90
12872;DHT22;6504;53.766;9.626;2023-09-18T06:26:02;18.20;99.90
12872;DHT22;6504;53.766;9.626;2023-09-18T06:28:31;18.20;99.90
12872;DHT22;6504;53.766;9.626;2023-09-18T06:31:00;18.20;99.90
12872;DHT22;6504;53.766;9.626;2023-09-18T06:33:28;18.30;99.90
12872;DHT22;6504;53.766;9.626;2023-09-18T06:35:57;18.30;99.90
12872;DHT22;6504;53.766;9.626;2023-09-18T06:38:25;18.30;99.90
12872;DHT22;6504;53.766;9.626;2023-09-18T06:40:53;18.40;99.90
12872;DHT22;6504;53.766;9.626;2023-09-18T06:43:21;18.40;99.90
12872;DHT22;6504;53.766;9.626;2023-09-18T06:45:50;18.50;99.90
12872;DHT22;6504;53.766;9.626;2023-09-18T06:48:19;18.50;99.90
12872;DHT22;6504;53.766;9.626;2023-09-18T06:50:48;18.60;99.90
12872;DHT22;6504;53.766;9.626;2023-09-18T06:53:16;18.60;99.90
12872;DHT22;6504;53.766;9.626;2023-09-18T06:55:44;18.60;99.90
12872;DHT22;6504;53.766;9.626;2023-09-18T06:58:12;18.70;99.90
12872;DHT22;6504;53.766;9.626;2023-09-18T07:00:40;18.70;99.90
12872;DHT22;6504;53.766;9.626;2023-09-18T07:03:09;18.70;99.90
12872;DHT22;6504;53.766;9.626;2023-09-18T07:05:41;18.80;99.90
12872;DHT22;6504;53.766;9.626;2023-09-18T07:08:09;18.80;99.90
12872;DHT22;6504;53.766;9.626;2023-09-18T07:10:39;18.90;99.90
12872;DHT22;6504;53.766;9.626;2023-09-18T07:13:08;18.90;99.90
12872;DHT22;6504;53.766;9.626;2023-09-18T07:15:36;18.90;99.90
12872;DHT22;6504;53.766;9.626;2023-09-18T07:18:04;19.00;99.90
12872;DHT22;6504;53.766;9.626;2023-09-18T07:20:32;19.00;99.90
12872;DHT22;6504;53.766;9.626;2023-09-18T07:23:04;19.00;99.90
12872;DHT22;6504;53.766;9.626;2023-09-18T07:25:32;19.00;99.90
12872;DHT22;6504;53.766;9.626;2023-09-18T07:28:00;19.10;99.90
12872;DHT22;6504;53.766;9.626;2023-09-18T07:30:28;19.20;99.90
12872;DHT22;6504;53.766;9.626;2023-09-18T07:32:56;19.20;99.90
12872;DHT22;6504;53.766;9.626;2023-09-18T07:35:25;19.20;99.90
12872;DHT22;6504;53.766;9.626;2023-09-18T07:37:53;19.30;99.90
12872;DHT22;6504;53.766;9.626;2023-09-18T07:40:22;19.30;99.90
12872;DHT22;6504;53.766;9.626;2023-09-18T07:42:50;19.40;99.90
12872;DHT22;6504;53.766;9.626;2023-09-18T07:45:18;19.40;99.90
12872;DHT22;6504;53.766;9.626;2023-09-18T07:47:46;19.40;99.90
12872;DHT22;6504;53.766;9.626;2023-09-18T07:50:15;19.50;99.90
12872;DHT22;6504;53.766;9.626;2023-09-18T07:52:45;19.50;99.90
12872;DHT22;6504;53.766;9.626;2023-09-18T07:55:13;19.50;99.90
12872;DHT22;6504;53.766;9.626;2023-09-18T07:57:43;19.60;99.90
12872;DHT22;6504;53.766;9.626;2023-09-18T08:00:12;19.70;99.90
12872;DHT22;6504;53.766;9.626;2023-09-18T08:02:42;19.70;99.90
12872;DHT22;6504;53.766;9.626;2023-09-18T08:05:10;19.70;99.90
12872;DHT22;6504;53.766;9.626;2023-09-18T08:07:38;19.80;99.90
12872;DHT22;6504;53.766;9.626;2023-09-18T08:10:08;19.90;99.90
12872;DHT22;6504;53.766;9.626;2023-09-18T08:12:36;19.90;99.90
12872;DHT22;6504;53.766;9.626;2023-09-18T08:15:07;19.90;99.90
12872;DHT22;6504;53.766;9.626;2023-09-18T08:17:35;20.00;99.90
12872;DHT22;6504;53.766;9.626;2023-09-18T08:20:05;20.00;99.90
12872;DHT22;6504;53.766;9.626;2023-09-18T08:22:39;20.10;99.90
12872;DHT22;6504;53.766;9.626;2023-09-18T08:25:07;20.10;99.90
12872;DHT22;6504;53.766;9.626;2023-09-18T08:27:37;20.10;99.90
12872;DHT22;6504;53.766;9.626;2023-09-18T08:30:11;20.20;99.90
12872;DHT22;6504;53.766;9.626;2023-09-18T08:32:41;20.20;99.90
12872;DHT22;6504;53.766;9.626;2023-09-18T08:35:09;20.30;99.90
12872;DHT22;6504;53.766;9.626;2023-09-18T08:37:39;20.30;99.90
12872;DHT22;6504;53.766;9.626;2023-09-18T08:40:10;20.30;99.90
12872;DHT22;6504;53.766;9.626;2023-09-18T08:42:43;20.30;99.90
12872;DHT22;6504;53.766;9.626;2023-09-18T08:45:18;20.30;99.90
12872;DHT22;6504;53.766;9.626;2023-09-18T08:47:47;20.40;99.90
12872;DHT22;6504;53.766;9.626;2023-09-18T08:50:15;20.40;99.90
12872;DHT22;6504;53.766;9.626;2023-09-18T08:52:43;20.40;99.90
12872;DHT22;6504;53.766;9.626;2023-09-18T08:55:13;20.40;99.90
12872;DHT22;6504;53.766;9.626;2023-09-18T08:57:42;20.40;99.90
12872;DHT22;6504;53.766;9.626;2023-09-18T09:00:13;20.40;99.90
12872;DHT22;6504;53.766;9.626;2023-09-18T09:02:43;20.40;99.90
12872;DHT22;6504;53.766;9.626;2023-09-18T09:05:12;20.40;99.90
12872;DHT22;6504;53.766;9.626;2023-09-18T09:07:40;20.40;99.90
12872;DHT22;6504;53.766;9.626;2023-09-18T09:10:08;20.40;99.90
12872;DHT22;6504;53.766;9.626;2023-09-18T09:12:51;20.40;99.90
12872;DHT22;6504;53.766;9.626;2023-09-18T09:15:22;20.40;99.90
12872;DHT22;6504;53.766;9.626;2023-09-18T09:17:52;20.30;99.90
12872;DHT22;6504;53.766;9.626;2023-09-18T09:20:20;20.30;99.90
12872;DHT22;6504;53.766;9.626;2023-09-18T09:22:48;20.30;99.90
12872;DHT22;6504;53.766;9.626;2023-09-18T09:25:26;20.30;99.90
12872;DHT22;6504;53.766;9.626;2023-09-18T09:27:55;20.20;99.90
12872;DHT22;6504;53.766;9.626;2023-09-18T09:30:26;20.20;99.90
12872;DHT22;6504;53.766;9.626;2023-09-18T09:32:56;20.20;99.90
12872;DHT22;6504;53.766;9.626;2023-09-18T09:35:26;20.20;99.90
12872;DHT22;6504;53.766;9.626;2023-09-18T09:37:57;20.30;99.90
12872;DHT22;6504;53.766;9.626;2023-09-18T09:40:26;20.30;99.90
12872;DHT22;6504;53.766;9.626;2023-09-18T09:42:56;20.30;99.90
12872;DHT22;6504;53.766;9.626;2023-09-18T09:45:29;20.30;99.90
12872;DHT22;6504;53.766;9.626;2023-09-18T09:48:03;20.40;99.90
12872;DHT22;6504;53.766;9.626;2023-09-18T09:50:33;20.50;99.90
12872;DHT22;6504;53.766;9.626;2023-09-18T09:53:01;20.50;99.90
12872;DHT22;6504;53.766;9.626;2023-09-18T09:55:31;20.60;99.90
12872;DHT22;6504;53.766;9.626;2023-09-18T09:58:01;20.60;99.90
12872;DHT22;6504;53.766;9.626;2023-09-18T10:00:33;20.70;99.90
12872;DHT22;6504;53.766;9.626;2023-09-18T10:03:10;20.70;99.90
12872;DHT22;6504;53.766;9.626;2023-09-18T10:05:40;20.80;99.90
12872;DHT22;6504;53.766;9.626;2023-09-18T10:08:12;20.80;99.90
12872;DHT22;6504;53.766;9.626;2023-09-18T10:10:46;20.90;99.90
12872;DHT22;6504;53.766;9.626;2023-09-18T10:13:17;20.90;99.90
12872;DHT22;6504;53.766;9.626;2023-09-18T10:15:49;20.90;99.90
12872;DHT22;6504;53.766;9.626;2023-09-18T10:18:22;21.00;99.90
12872;DHT22;6504;53.766;9.626;2023-09-18T10:21:03;21.00;99.90
12872;DHT22;6504;53.766;9.626;2023-09-18T10:23:46;21.00;99.90
12872;DHT22;6504;53.766;9.626;2023-09-18T10:26:24;21.00;99.90
12872;DHT22;6504;53.766;9.626;2023-09-18T10:28:56;21.00;99.90
12872;DHT22;6504;53.766;9.626;2023-09-18T10:31:28;21.10;99.90
12872;DHT22;6504;53.766;9.626;2023-09-18T10:33:57;21.10;99.90
12872;DHT22;6504;53.766;9.626;2023-09-18T10:36:26;21.10;99.90
12872;DHT22;6504;53.766;9.626;2023-09-18T10:39:00;21.10;99.90
12872;DHT22;6504;53.766;9.626;2023-09-18T10:41:34;21.10;99.90
12872;DHT22;6504;53.766;9.626;2023-09-18T10:44:04;21.20;99.90
12872;DHT22;6504;53.766;9.626;2023-09-18T10:46:33;21.20;99.90
12872;DHT22;6504;53.766;9.626;2023-09-18T10:49:01;21.20;99.90
12872;DHT22;6504;53.766;9.626;2023-09-18T10:51:31;21.30;99.90
12872;DHT22;6504;53.766;9.626;2023-09-18T10:54:00;21.30;99.90
12872;DHT22;6504;53.766;9.626;2023-09-18T10:56:30;21.40;99.90
12872;DHT22;6504;53.766;9.626;2023-09-18T10:59:00;21.40;99.90
12872;DHT22;6504;53.766;9.626;2023-09-18T11:01:29;21.40;99.90
12872;DHT22;6504;53.766;9.626;2023-09-18T11:04:01;21.50;99.90
12872;DHT22;6504;53.766;9.626;2023-09-18T11:06:29;21.60;99.90
12872;DHT22;6504;53.766;9.626;2023-09-18T11:09:01;21.70;99.90
12872;DHT22;6504;53.766;9.626;2023-09-18T11:11:31;21.80;99.90
12872;DHT22;6504;53.766;9.626;2023-09-18T11:14:02;21.90;99.90
12872;DHT22;6504;53.766;9.626;2023-09-18T11:16:35;21.90;99.90
12872;DHT22;6504;53.766;9.626;2023-09-18T11:19:11;22.00;99.90
12872;DHT22;6504;53.766;9.626;2023-09-18T11:21:40;22.00;99.90
12872;DHT22;6504;53.766;9.626;2023-09-18T11:24:15;22.10;99.90
12872;DHT22;6504;53.766;9.626;2023-09-18T11:26:46;22.10;99.90
12872;DHT22;6504;53.766;9.626;2023-09-18T11:29:18;22.10;99.90
12872;DHT22;6504;53.766;9.626;2023-09-18T11:31:51;22.20;99.90
12872;DHT22;6504;53.766;9.626;2023-09-18T11:34:23;22.20;99.90
12872;DHT22;6504;53.766;9.626;2023-09-18T11:36:53;22.20;99.90
12872;DHT22;6504;53.766;9.626;2023-09-18T11:39:35;22.20;99.90
12872;DHT22;6504;53.766;9.626;2023-09-18T11:42:07;22.20;99.90
12872;DHT22;6504;53.766;9.626;2023-09-18T11:44:37;22.20;99.90
12872;DHT22;6504;53.766;9.626;2023-09-18T11:47:10;22.20;99.90
12872;DHT22;6504;53.766;9.626;2023-09-18T11:49:49;22.20;99.90
12872;DHT22;6504;53.766;9.626;2023-09-18T11:52:22;22.20;99.90
12872;DHT22;6504;53.766;9.626;2023-09-18T11:54:51;22.20;99.90
12872;DHT22;6504;53.766;9.626;2023-09-18T11:57:21;22.20;99.90
12872;DHT22;6504;53.766;9.626;2023-09-18T11:59:49;22.20;99.90
12872;DHT22;6504;53.766;9.626;2023-09-18T12:02:26;22.20;99.90
12872;DHT22;6504;53.766;9.626;2023-09-18T12:04:58;22.20;99.90
12872;DHT22;6504;53.766;9.626;2023-09-18T12:07:26;22.20;99.90
12872;DHT22;6504;53.766;9.626;2023-09-18T12:09:54;22.20;99.90
12872;DHT22;6504;53.766;9.626;2023-09-18T12:12:22;22.20;99.90
12872;DHT22;6504;53.766;9.626;2023-09-18T12:14:52;22.20;99.90
12872;DHT22;6504;53.766;9.626;2023-09-18T12:17:21;22.20;99.90
12872;DHT22;6504;53.766;9.626;2023-09-18T12:19:52;22.20;99.90
12872;DHT22;6504;53.766;9.626;2023-09-18T12:22:26;22.20;99.90
12872;DHT22;6504;53.766;9.626;2023-09-18T12:25:08;22.20;99.90
12872;DHT22;6504;53.766;9.626;2023-09-18T12:27:41;22.30;99.90
12872;DHT22;6504;53.766;9.626;2023-09-18T12:30:11;22.40;99.90
12872;DHT22;6504;53.766;9.626;2023-09-18T12:32:42;22.40;99.90
12872;DHT22;6504;53.766;9.626;2023-09-18T12:35:13;22.50;99.90
12872;DHT22;6504;53.766;9.626;2023-09-18T12:37:43;22.60;99.90
12872;DHT22;6504;53.766;9.626;2023-09-18T12:40:22;22.60;99.90
12872;DHT22;6504;53.766;9.626;2023-09-18T12:42:50;22.70;99.90
12872;DHT22;6504;53.766;9.626;2023-09-18T12:45:20;22.80;99.90
12872;DHT22;6504;53.766;9.626;2023-09-18T12:47:49;22.80;99.90
12872;DHT22;6504;53.766;9.626;2023-09-18T12:50:18;22.80;99.90
12872;DHT22;6504;53.766;9.626;2023-09-18T12:52:47;23.00;99.90
12872;DHT22;6504;53.766;9.626;2023-09-18T12:55:22;23.10;99.90
12872;DHT22;6504;53.766;9.626;2023-09-18T12:57:51;23.20;99.90
12872;DHT22;6504;53.766;9.626;2023-09-18T13:00:20;23.30;99.90
12872;DHT22;6504;53.766;9.626;2023-09-18T13:02:50;23.40;99.90
12872;DHT22;6504;53.766;9.626;2023-09-18T13:05:23;23.50;99.90
12872;DHT22;6504;53.766;9.626;2023-09-18T13:07:54;23.50;99.90
12872;DHT22;6504;53.766;9.626;2023-09-18T13:10:23;23.60;99.90
12872;DHT22;6504;53.766;9.626;2023-09-18T13:12:55;23.60;99.90
12872;DHT22;6504;53.766;9.626;2023-09-18T13:15:25;23.80;99.90
12872;DHT22;6504;53.766;9.626;2023-09-18T13:17:56;23.90;99.90
12872;DHT22;6504;53.766;9.626;2023-09-18T13:20:26;24.00;99.90
12872;DHT22;6504;53.766;9.626;2023-09-18T13:22:59;24.00;99.90
12872;DHT22;6504;53.766;9.626;2023-09-18T13:25:32;24.00;99.90
12872;DHT22;6504;53.766;9.626;2023-09-18T13:28:02;24.00;99.90
12872;DHT22;6504;53.766;9.626;2023-09-18T13:30:30;24.10;99.90
12872;DHT22;6504;53.766;9.626;2023-09-18T13:33:05;24.00;99.90
12872;DHT22;6504;53.766;9.626;2023-09-18T13:35:34;24.00;99.90
12872;DHT22;6504;53.766;9.626;2023-09-18T13:38:04;23.90;99.90
12872;DHT22;6504;53.766;9.626;2023-09-18T13:40:33;23.80;99.90
12872;DHT22;6504;53.766;9.626;2023-09-18T13:43:02;23.80;99.90
12872;DHT22;6504;53.766;9.626;2023-09-18T13:45:31;23.80;99.90
12872;DHT22;6504;53.766;9.626;2023-09-18T13:48:01;23.80;99.90
12872;DHT22;6504;53.766;9.626;2023-09-18T13:50:31;23.80;99.90
12872;DHT22;6504;53.766;9.626;2023-09-18T13:52:59;23.70;99.90
12872;DHT22;6504;53.766;9.626;2023-09-18T13:55:31;23.70;99.90
12872;DHT22;6504;53.766;9.626;2023-09-18T13:57:59;23.70;99.90
12872;DHT22;6504;53.766;9.626;2023-09-18T14:00:30;23.60;99.90
12872;DHT22;6504;53.766;9.626;2023-09-18T14:02:58;23.60;99.90
12872;DHT22;6504;53.766;9.626;2023-09-18T14:05:27;23.60;99.90
12872;DHT22;6504;53.766;9.626;2023-09-18T14:07:57;23.60;99.90
12872;DHT22;6504;53.766;9.626;2023-09-18T14:10:27;23.50;99.90
12872;DHT22;6504;53.766;9.626;2023-09-18T14:12:57;23.50;99.90
12872;DHT22;6504;53.766;9.626;2023-09-18T14:15:25;23.50;99.90
12872;DHT22;6504;53.766;9.626;2023-09-18T14:17:53;23.50;99.90
12872;DHT22;6504;53.766;9.626;2023-09-18T14:20:21;23.50;99.90
12872;DHT22;6504;53.766;9.626;2023-09-18T14:22:49;23.50;99.90
12872;DHT22;6504;53.766;9.626;2023-09-18T14:25:18;23.50;99.90
12872;DHT22;6504;53.766;9.626;2023-09-18T14:27:47;23.60;99.90
12872;DHT22;6504;53.766;9.626;2023-09-18T14:30:16;23.60;99.90
12872;DHT22;6504;53.766;9.626;2023-09-18T14:32:45;23.70;99.90
12872;DHT22;6504;53.766;9.626;2023-09-18T14:35:14;23.80;99.90
12872;DHT22;6504;53.766;9.626;2023-09-18T14:37:42;23.80;99.90
12872;DHT22;6504;53.766;9.626;2023-09-18T14:40:10;23.90;99.90
12872;DHT22;6504;53.766;9.626;2023-09-18T14:42:39;23.90;99.90
12872;DHT22;6504;53.766;9.626;2023-09-18T14:45:08;23.90;99.90
12872;DHT22;6504;53.766;9.626;2023-09-18T14:47:38;24.00;99.90
12872;DHT22;6504;53.766;9.626;2023-09-18T14:50:07;24.00;99.90
12872;DHT22;6504;53.766;9.626;2023-09-18T14:52:35;24.00;99.90
12872;DHT22;6504;53.766;9.626;2023-09-18T14:55:03;24.00;99.90
12872;DHT22;6504;53.766;9.626;2023-09-18T14:57:32;24.00;99.90
12872;DHT22;6504;53.766;9.626;2023-09-18T15:00:00;24.10;99.90
12872;DHT22;6504;53.766;9.626;2023-09-18T15:02:28;24.00;99.90
12872;DHT22;6504;53.766;9.626;2023-09-18T15:04:59;24.00;99.90
12872;DHT22;6504;53.766;9.626;2023-09-18T15:07:27;24.00;99.90
12872;DHT22;6504;53.766;9.626;2023-09-18T15:09:59;24.00;99.90
12872;DHT22;6504;53.766;9.626;2023-09-18T15:12:27;24.10;99.90
12872;DHT22;6504;53.766;9.626;2023-09-18T15:14:56;24.10;99.90
12872;DHT22;6504;53.766;9.626;2023-09-18T15:17:24;24.10;99.90
12872;DHT22;6504;53.766;9.626;2023-09-18T15:19:54;24.20;99.90
12872;DHT22;6504;53.766;9.626;2023-09-18T15:22:24;24.10;99.90
12872;DHT22;6504;53.766;9.626;2023-09-18T15:24:52;24.20;99.90
12872;DHT22;6504;53.766;9.626;2023-09-18T15:27:24;24.20;99.90
12872;DHT22;6504;53.766;9.626;2023-09-18T15:29:52;24.20;99.90
12872;DHT22;6504;53.766;9.626;2023-09-18T15:32:21;24.20;99.90
12872;DHT22;6504;53.766;9.626;2023-09-18T15:34:49;24.20;99.90
12872;DHT22;6504;53.766;9.626;2023-09-18T15:37:17;24.20;99.90
12872;DHT22;6504;53.766;9.626;2023-09-18T15:39:48;24.10;99.90
12872;DHT22;6504;53.766;9.626;2023-09-18T15:42:17;24.10;99.90
12872;DHT22;6504;53.766;9.626;2023-09-18T15:44:45;24.00;99.90
12872;DHT22;6504;53.766;9.626;2023-09-18T15:47:14;23.90;99.90
12872;DHT22;6504;53.766;9.626;2023-09-18T15:49:42;23.90;99.90
12872;DHT22;6504;53.766;9.626;2023-09-18T15:52:09;23.80;99.90
12872;DHT22;6504;53.766;9.626;2023-09-18T15:54:37;23.70;99.90
12872;DHT22;6504;53.766;9.626;2023-09-18T15:57:08;23.70;99.90
12872;DHT22;6504;53.766;9.626;2023-09-18T15:59:36;23.60;99.90